< < Back
Terminal Aerodrome Forecast


Current Version              Previous Versions:   1  2  3  4  5  6  7  8  9  

Terminal Aerodrome Forecast

144
FTUS42 KTAE 311720
TAFTLH
TAF
KTLH 311720Z 3118/0118 25005KT P6SM SCT050
      TEMPO 3119/3123 21015G25KT 5SM TSRA SCT015CB BKN040
     FM010900 00000KT 3SM BR SCT002
     FM011300 27003KT P6SM SCT250=



Latest METAR

552
SAUS80 KWBC 311800
MTRTLH
METAR KTLH 311753Z VRB06KT 10SM SCT055 35/18 A2992 RMK AO2 SLP132
T03500178 10350 20222 58010


USA.gov is the U.S. government's official web portal to all federal, state and local government web resources and services.